sensor_id;sensor_type;location;lat;lon;timestamp;temperature;humidity
4985;DHT22;2509;49.902;8.600;2023-08-01T00:00:25;16.90;99.90
4985;DHT22;2509;49.902;8.600;2023-08-01T00:03:26;16.90;99.90
4985;DHT22;2509;49.902;8.600;2023-08-01T00:06:29;16.80;99.90
4985;DHT22;2509;49.902;8.600;2023-08-01T00:09:31;16.80;99.90
4985;DHT22;2509;49.902;8.600;2023-08-01T00:12:33;16.80;99.90
4985;DHT22;2509;49.902;8.600;2023-08-01T00:15:35;16.80;99.90
4985;DHT22;2509;49.902;8.600;2023-08-01T00:18:37;16.80;99.90
4985;DHT22;2509;49.902;8.600;2023-08-01T00:21:40;16.80;99.90
4985;DHT22;2509;49.902;8.600;2023-08-01T00:24:41;16.80;99.90
4985;DHT22;2509;49.902;8.600;2023-08-01T00:27:43;16.80;99.90
4985;DHT22;2509;49.902;8.600;2023-08-01T00:30:45;16.80;99.90
4985;DHT22;2509;49.902;8.600;2023-08-01T00:33:47;16.80;99.90
4985;DHT22;2509;49.902;8.600;2023-08-01T00:36:50;16.80;99.90
4985;DHT22;2509;49.902;8.600;2023-08-01T00:39:51;16.80;99.90
4985;DHT22;2509;49.902;8.600;2023-08-01T00:42:53;16.80;99.90
4985;DHT22;2509;49.902;8.600;2023-08-01T00:45:59;16.80;99.90
4985;DHT22;2509;49.902;8.600;2023-08-01T00:49:02;16.80;99.90
4985;DHT22;2509;49.902;8.600;2023-08-01T00:52:06;16.80;99.90
4985;DHT22;2509;49.902;8.600;2023-08-01T00:55:08;16.80;99.90
4985;DHT22;2509;49.902;8.600;2023-08-01T00:58:10;16.80;99.90
4985;DHT22;2509;49.902;8.600;2023-08-01T01:01:12;16.80;99.90
4985;DHT22;2509;49.902;8.600;2023-08-01T01:04:14;16.80;99.90
4985;DHT22;2509;49.902;8.600;2023-08-01T01:07:17;16.80;99.90
4985;DHT22;2509;49.902;8.600;2023-08-01T01:10:19;16.80;99.90
4985;DHT22;2509;49.902;8.600;2023-08-01T01:13:21;16.80;99.90
4985;DHT22;2509;49.902;8.600;2023-08-01T01:16:22;16.80;99.90
4985;DHT22;2509;49.902;8.600;2023-08-01T01:19:24;16.80;99.90
4985;DHT22;2509;49.902;8.600;2023-08-01T01:22:28;16.80;99.90
4985;DHT22;2509;49.902;8.600;2023-08-01T01:25:31;16.80;99.90
4985;DHT22;2509;49.902;8.600;2023-08-01T01:28:35;16.80;99.90
4985;DHT22;2509;49.902;8.600;2023-08-01T01:31:37;16.80;99.90
4985;DHT22;2509;49.902;8.600;2023-08-01T01:34:40;16.80;99.90
4985;DHT22;2509;49.902;8.600;2023-08-01T01:37:43;16.80;99.90
4985;DHT22;2509;49.902;8.600;2023-08-01T01:40:44;16.80;99.90
4985;DHT22;2509;49.902;8.600;2023-08-01T01:43:46;16.80;99.90
4985;DHT22;2509;49.902;8.600;2023-08-01T01:46:48;16.80;99.90
4985;DHT22;2509;49.902;8.600;2023-08-01T01:49:49;16.80;99.90
4985;DHT22;2509;49.902;8.600;2023-08-01T01:52:53;16.80;99.90
4985;DHT22;2509;49.902;8.600;2023-08-01T01:55:54;16.80;99.90
4985;DHT22;2509;49.902;8.600;2023-08-01T01:58:56;16.80;99.90
4985;DHT22;2509;49.902;8.600;2023-08-01T02:01:58;16.80;99.90
4985;DHT22;2509;49.902;8.600;2023-08-01T02:05:00;16.80;99.90
4985;DHT22;2509;49.902;8.600;2023-08-01T02:08:03;16.80;99.90
4985;DHT22;2509;49.902;8.600;2023-08-01T02:11:05;16.80;99.90
4985;DHT22;2509;49.902;8.600;2023-08-01T02:14:07;16.80;99.90
4985;DHT22;2509;49.902;8.600;2023-08-01T02:17:09;16.80;99.90
4985;DHT22;2509;49.902;8.600;2023-08-01T02:20:11;16.90;99.90
4985;DHT22;2509;49.902;8.600;2023-08-01T02:23:14;16.80;99.90
4985;DHT22;2509;49.902;8.600;2023-08-01T02:26:16;16.80;99.90
4985;DHT22;2509;49.902;8.600;2023-08-01T02:29:17;16.90;99.90
4985;DHT22;2509;49.902;8.600;2023-08-01T02:32:19;16.90;99.90
4985;DHT22;2509;49.902;8.600;2023-08-01T02:35:21;16.80;99.90
4985;DHT22;2509;49.902;8.600;2023-08-01T02:38:24;16.90;99.90
4985;DHT22;2509;49.902;8.600;2023-08-01T02:41:26;16.90;99.90
4985;DHT22;2509;49.902;8.600;2023-08-01T02:44:28;16.90;99.90
4985;DHT22;2509;49.902;8.600;2023-08-01T02:47:30;16.90;99.90
4985;DHT22;2509;49.902;8.600;2023-08-01T02:50:32;16.90;99.90
4985;DHT22;2509;49.902;8.600;2023-08-01T02:53:35;16.90;99.90
4985;DHT22;2509;49.902;8.600;2023-08-01T02:56:36;16.90;99.90
4985;DHT22;2509;49.902;8.600;2023-08-01T02:59:41;16.90;99.90
4985;DHT22;2509;49.902;8.600;2023-08-01T03:02:43;16.90;99.90
4985;DHT22;2509;49.902;8.600;2023-08-01T03:05:45;16.90;99.90
4985;DHT22;2509;49.902;8.600;2023-08-01T03:08:48;16.90;99.90
4985;DHT22;2509;49.902;8.600;2023-08-01T03:11:49;16.90;99.90
4985;DHT22;2509;49.902;8.600;2023-08-01T03:14:51;16.90;99.90
4985;DHT22;2509;49.902;8.600;2023-08-01T03:17:53;16.90;99.90
4985;DHT22;2509;49.902;8.600;2023-08-01T03:20:55;16.90;99.90
4985;DHT22;2509;49.902;8.600;2023-08-01T03:23:58;16.90;99.90
4985;DHT22;2509;49.902;8.600;2023-08-01T03:26:59;16.90;99.90
4985;DHT22;2509;49.902;8.600;2023-08-01T03:30:02;16.90;99.90
4985;DHT22;2509;49.902;8.600;2023-08-01T03:33:04;16.90;99.90
4985;DHT22;2509;49.902;8.600;2023-08-01T03:36:06;17.00;99.90
4985;DHT22;2509;49.902;8.600;2023-08-01T03:39:09;17.00;99.90
4985;DHT22;2509;49.902;8.600;2023-08-01T03:42:11;16.90;99.90
4985;DHT22;2509;49.902;8.600;2023-08-01T03:45:13;17.00;99.90
4985;DHT22;2509;49.902;8.600;2023-08-01T03:48:14;17.00;99.90
4985;DHT22;2509;49.902;8.600;2023-08-01T03:51:16;17.00;99.90
4985;DHT22;2509;49.902;8.600;2023-08-01T03:54:21;17.00;99.90
4985;DHT22;2509;49.902;8.600;2023-08-01T03:57:22;17.00;99.90
4985;DHT22;2509;49.902;8.600;2023-08-01T04:00:24;17.00;99.90
4985;DHT22;2509;49.902;8.600;2023-08-01T04:03:32;17.00;99.90
4985;DHT22;2509;49.902;8.600;2023-08-01T04:06:34;17.00;99.90
4985;DHT22;2509;49.902;8.600;2023-08-01T04:09:37;17.00;99.90
4985;DHT22;2509;49.902;8.600;2023-08-01T04:12:39;17.00;99.90
4985;DHT22;2509;49.902;8.600;2023-08-01T04:15:42;16.90;99.90
4985;DHT22;2509;49.902;8.600;2023-08-01T04:18:44;17.00;99.90
4985;DHT22;2509;49.902;8.600;2023-08-01T04:21:46;17.00;99.90
4985;DHT22;2509;49.902;8.600;2023-08-01T04:24:49;17.00;99.90
4985;DHT22;2509;49.902;8.600;2023-08-01T04:27:50;17.00;99.90
4985;DHT22;2509;49.902;8.600;2023-08-01T04:30:52;17.00;99.90
4985;DHT22;2509;49.902;8.600;2023-08-01T04:33:54;17.00;99.90
4985;DHT22;2509;49.902;8.600;2023-08-01T04:36:56;17.00;99.90
4985;DHT22;2509;49.902;8.600;2023-08-01T04:39:59;17.00;99.90
4985;DHT22;2509;49.902;8.600;2023-08-01T04:43:01;17.00;99.90
4985;DHT22;2509;49.902;8.600;2023-08-01T04:46:02;17.00;99.90
4985;DHT22;2509;49.902;8.600;2023-08-01T04:49:04;17.00;99.90
4985;DHT22;2509;49.902;8.600;2023-08-01T04:52:07;17.00;99.90
4985;DHT22;2509;49.902;8.600;2023-08-01T04:55:10;17.00;99.90
4985;DHT22;2509;49.902;8.600;2023-08-01T04:58:11;17.00;99.90
4985;DHT22;2509;49.902;8.600;2023-08-01T05:01:13;16.90;99.90
4985;DHT22;2509;49.902;8.600;2023-08-01T05:04:15;17.00;99.90
4985;DHT22;2509;49.902;8.600;2023-08-01T05:07:17;16.90;99.90
4985;DHT22;2509;49.902;8.600;2023-08-01T05:10:20;16.90;99.90
4985;DHT22;2509;49.902;8.600;2023-08-01T05:13:21;16.90;99.90
4985;DHT22;2509;49.902;8.600;2023-08-01T05:16:23;16.90;99.90
4985;DHT22;2509;49.902;8.600;2023-08-01T05:19:25;16.90;99.90
4985;DHT22;2509;49.902;8.600;2023-08-01T05:22:27;16.80;99.90
4985;DHT22;2509;49.902;8.600;2023-08-01T05:25:30;16.80;99.90
4985;DHT22;2509;49.902;8.600;2023-08-01T05:28:32;16.80;99.90
4985;DHT22;2509;49.902;8.600;2023-08-01T05:31:33;16.70;99.90
4985;DHT22;2509;49.902;8.600;2023-08-01T05:34:35;16.60;99.90
4985;DHT22;2509;49.902;8.600;2023-08-01T05:37:37;16.40;99.90
4985;DHT22;2509;49.902;8.600;2023-08-01T05:40:40;16.20;99.90
4985;DHT22;2509;49.902;8.600;2023-08-01T05:43:41;16.20;99.90
4985;DHT22;2509;49.902;8.600;2023-08-01T05:46:43;16.20;99.90
4985;DHT22;2509;49.902;8.600;2023-08-01T05:49:45;16.20;99.90
4985;DHT22;2509;49.902;8.600;2023-08-01T05:52:47;16.20;99.90
4985;DHT22;2509;49.902;8.600;2023-08-01T05:55:50;16.20;99.90
4985;DHT22;2509;49.902;8.600;2023-08-01T05:58:51;16.20;99.90
4985;DHT22;2509;49.902;8.600;2023-08-01T06:01:56;16.20;99.90
4985;DHT22;2509;49.902;8.600;2023-08-01T06:04:58;16.20;99.90
4985;DHT22;2509;49.902;8.600;2023-08-01T06:08:00;16.20;99.90
4985;DHT22;2509;49.902;8.600;2023-08-01T06:11:03;16.20;99.90
4985;DHT22;2509;49.902;8.600;2023-08-01T06:14:05;16.20;99.90
4985;DHT22;2509;49.902;8.600;2023-08-01T06:17:07;16.20;99.90
4985;DHT22;2509;49.902;8.600;2023-08-01T06:20:10;16.20;99.90
4985;DHT22;2509;49.902;8.600;2023-08-01T06:23:11;16.20;99.90
4985;DHT22;2509;49.902;8.600;2023-08-01T06:26:15;16.20;99.90
4985;DHT22;2509;49.902;8.600;2023-08-01T06:29:17;16.30;99.90
4985;DHT22;2509;49.902;8.600;2023-08-01T06:32:18;16.30;99.90
4985;DHT22;2509;49.902;8.600;2023-08-01T06:35:20;16.30;99.90
4985;DHT22;2509;49.902;8.600;2023-08-01T06:38:22;16.40;99.90
4985;DHT22;2509;49.902;8.600;2023-08-01T06:41:25;16.40;99.90
4985;DHT22;2509;49.902;8.600;2023-08-01T06:44:27;16.50;99.90
4985;DHT22;2509;49.902;8.600;2023-08-01T06:47:28;16.50;99.90
4985;DHT22;2509;49.902;8.600;2023-08-01T06:50:30;16.50;99.90
4985;DHT22;2509;49.902;8.600;2023-08-01T06:53:32;16.50;99.90
4985;DHT22;2509;49.902;8.600;2023-08-01T06:56:35;16.50;99.90
4985;DHT22;2509;49.902;8.600;2023-08-01T06:59:37;16.50;99.90
4985;DHT22;2509;49.902;8.600;2023-08-01T07:02:38;16.50;99.90
4985;DHT22;2509;49.902;8.600;2023-08-01T07:05:40;16.60;99.90
4985;DHT22;2509;49.902;8.600;2023-08-01T07:08:42;16.60;99.90
4985;DHT22;2509;49.902;8.600;2023-08-01T07:11:45;16.60;99.90
4985;DHT22;2509;49.902;8.600;2023-08-01T07:14:47;16.60;99.90
4985;DHT22;2509;49.902;8.600;2023-08-01T07:17:49;16.60;99.90
4985;DHT22;2509;49.902;8.600;2023-08-01T07:20:59;16.70;99.90
4985;DHT22;2509;49.902;8.600;2023-08-01T07:24:01;16.70;99.90
4985;DHT22;2509;49.902;8.600;2023-08-01T07:27:05;16.80;99.90
4985;DHT22;2509;49.902;8.600;2023-08-01T07:30:08;16.80;99.90
4985;DHT22;2509;49.902;8.600;2023-08-01T07:33:10;16.70;99.90
4985;DHT22;2509;49.902;8.600;2023-08-01T07:36:12;16.80;99.90
4985;DHT22;2509;49.902;8.600;2023-08-01T07:39:14;16.80;99.90
4985;DHT22;2509;49.902;8.600;2023-08-01T07:42:17;16.80;99.90
4985;DHT22;2509;49.902;8.600;2023-08-01T07:45:18;16.80;99.90
4985;DHT22;2509;49.902;8.600;2023-08-01T07:48:20;16.80;99.90
4985;DHT22;2509;49.902;8.600;2023-08-01T07:51:22;16.80;99.90
4985;DHT22;2509;49.902;8.600;2023-08-01T07:54:24;16.80;99.90
4985;DHT22;2509;49.902;8.600;2023-08-01T07:57:27;16.80;99.90
4985;DHT22;2509;49.902;8.600;2023-08-01T08:00:29;16.80;99.90
4985;DHT22;2509;49.902;8.600;2023-08-01T08:03:30;16.80;99.90
4985;DHT22;2509;49.902;8.600;2023-08-01T08:06:32;16.80;99.90
4985;DHT22;2509;49.902;8.600;2023-08-01T08:09:34;16.90;99.90
4985;DHT22;2509;49.902;8.600;2023-08-01T08:12:37;17.10;99.90
4985;DHT22;2509;49.902;8.600;2023-08-01T08:15:39;17.20;99.90
4985;DHT22;2509;49.902;8.600;2023-08-01T08:18:41;17.30;99.90
4985;DHT22;2509;49.902;8.600;2023-08-01T08:21:42;17.50;99.90
4985;DHT22;2509;49.902;8.600;2023-08-01T08:24:44;17.70;99.90
4985;DHT22;2509;49.902;8.600;2023-08-01T08:27:48;17.90;99.90
4985;DHT22;2509;49.902;8.600;2023-08-01T08:30:50;18.00;99.90
4985;DHT22;2509;49.902;8.600;2023-08-01T08:33:52;18.20;99.90
4985;DHT22;2509;49.902;8.600;2023-08-01T08:36:53;18.50;99.90
4985;DHT22;2509;49.902;8.600;2023-08-01T08:39:55;18.60;99.90
4985;DHT22;2509;49.902;8.600;2023-08-01T08:43:01;18.60;99.90
4985;DHT22;2509;49.902;8.600;2023-08-01T08:46:04;18.50;99.90
4985;DHT22;2509;49.902;8.600;2023-08-01T08:49:06;18.50;99.90
4985;DHT22;2509;49.902;8.600;2023-08-01T08:52:09;18.60;99.90
4985;DHT22;2509;49.902;8.600;2023-08-01T08:55:12;18.60;99.90
4985;DHT22;2509;49.902;8.600;2023-08-01T08:58:15;18.70;99.90
4985;DHT22;2509;49.902;8.600;2023-08-01T09:01:17;18.60;99.90
4985;DHT22;2509;49.902;8.600;2023-08-01T09:04:19;18.60;99.90
4985;DHT22;2509;49.902;8.600;2023-08-01T09:07:23;18.70;99.90
4985;DHT22;2509;49.902;8.600;2023-08-01T09:10:26;18.70;99.90
4985;DHT22;2509;49.902;8.600;2023-08-01T09:13:29;18.70;99.90
4985;DHT22;2509;49.902;8.600;2023-08-01T09:16:32;18.70;99.90
4985;DHT22;2509;49.902;8.600;2023-08-01T09:19:34;18.50;99.90
4985;DHT22;2509;49.902;8.600;2023-08-01T09:22:43;18.30;99.90
4985;DHT22;2509;49.902;8.600;2023-08-01T09:28:57;18.30;99.90
4985;DHT22;2509;49.902;8.600;2023-08-01T09:31:59;18.60;99.90
4985;DHT22;2509;49.902;8.600;2023-08-01T09:35:01;19.00;99.90
4985;DHT22;2509;49.902;8.600;2023-08-01T09:38:04;19.20;99.90
4985;DHT22;2509;49.902;8.600;2023-08-01T09:41:05;19.40;99.90
4985;DHT22;2509;49.902;8.600;2023-08-01T09:44:11;19.30;99.90
4985;DHT22;2509;49.902;8.600;2023-08-01T09:47:13;19.30;99.90
4985;DHT22;2509;49.902;8.600;2023-08-01T09:50:20;19.20;99.90
4985;DHT22;2509;49.902;8.600;2023-08-01T09:53:22;19.10;99.90
4985;DHT22;2509;49.902;8.600;2023-08-01T09:56:25;18.80;99.90
4985;DHT22;2509;49.902;8.600;2023-08-01T09:59:30;18.70;99.90
4985;DHT22;2509;49.902;8.600;2023-08-01T10:02:32;18.70;99.90
4985;DHT22;2509;49.902;8.600;2023-08-01T10:05:35;19.00;99.90
4985;DHT22;2509;49.902;8.600;2023-08-01T10:08:40;19.20;99.90
4985;DHT22;2509;49.902;8.600;2023-08-01T10:11:42;19.60;99.90
4985;DHT22;2509;49.902;8.600;2023-08-01T10:14:46;20.00;99.90
4985;DHT22;2509;49.902;8.600;2023-08-01T10:17:48;20.10;99.90
4985;DHT22;2509;49.902;8.600;2023-08-01T10:20:51;20.00;99.90
4985;DHT22;2509;49.902;8.600;2023-08-01T10:23:53;20.30;99.90
4985;DHT22;2509;49.902;8.600;2023-08-01T10:26:56;20.40;99.90
4985;DHT22;2509;49.902;8.600;2023-08-01T10:30:00;20.70;99.90
4985;DHT22;2509;49.902;8.600;2023-08-01T10:33:02;20.80;99.90
4985;DHT22;2509;49.902;8.600;2023-08-01T10:36:13;20.90;99.90
4985;DHT22;2509;49.902;8.600;2023-08-01T10:39:21;20.90;99.90
4985;DHT22;2509;49.902;8.600;2023-08-01T10:42:23;21.00;99.90
4985;DHT22;2509;49.902;8.600;2023-08-01T10:45:26;21.00;99.90
4985;DHT22;2509;49.902;8.600;2023-08-01T10:48:30;21.00;99.90
4985;DHT22;2509;49.902;8.600;2023-08-01T10:51:34;20.80;99.90
4985;DHT22;2509;49.902;8.600;2023-08-01T10:54:36;20.50;99.90
4985;DHT22;2509;49.902;8.600;2023-08-01T10:57:48;20.50;99.90
4985;DHT22;2509;49.902;8.600;2023-08-01T11:00:58;20.80;99.90
4985;DHT22;2509;49.902;8.600;2023-08-01T11:04:00;20.80;99.90
4985;DHT22;2509;49.902;8.600;2023-08-01T11:07:04;20.80;99.90
4985;DHT22;2509;49.902;8.600;2023-08-01T11:14:05;20.90;99.90
4985;DHT22;2509;49.902;8.600;2023-08-01T11:17:09;21.00;99.90
4985;DHT22;2509;49.902;8.600;2023-08-01T11:20:14;20.90;99.90
4985;DHT22;2509;49.902;8.600;2023-08-01T11:23:15;21.20;99.90
4985;DHT22;2509;49.902;8.600;2023-08-01T11:26:17;21.40;99.90
4985;DHT22;2509;49.902;8.600;2023-08-01T11:29:20;21.50;99.90
4985;DHT22;2509;49.902;8.600;2023-08-01T11:32:33;21.50;99.90
4985;DHT22;2509;49.902;8.600;2023-08-01T11:35:35;21.20;99.90
4985;DHT22;2509;49.902;8.600;2023-08-01T11:38:37;20.90;99.90
4985;DHT22;2509;49.902;8.600;2023-08-01T11:41:39;21.00;99.90
4985;DHT22;2509;49.902;8.600;2023-08-01T11:44:40;21.70;99.90
4985;DHT22;2509;49.902;8.600;2023-08-01T11:47:46;22.50;99.90
4985;DHT22;2509;49.902;8.600;2023-08-01T11:50:49;23.10;99.90
4985;DHT22;2509;49.902;8.600;2023-08-01T11:53:58;23.20;99.90
4985;DHT22;2509;49.902;8.600;2023-08-01T11:57:01;23.20;99.90
4985;DHT22;2509;49.902;8.600;2023-08-01T12:00:03;23.20;99.90
4985;DHT22;2509;49.902;8.600;2023-08-01T12:03:07;23.40;99.90
4985;DHT22;2509;49.902;8.600;2023-08-01T12:06:13;23.50;99.90
4985;DHT22;2509;49.902;8.600;2023-08-01T12:09:15;23.60;99.90
4985;DHT22;2509;49.902;8.600;2023-08-01T12:12:17;23.90;99.90
4985;DHT22;2509;49.902;8.600;2023-08-01T12:15:19;24.20;99.90
4985;DHT22;2509;49.902;8.600;2023-08-01T12:18:23;24.10;99.90
4985;DHT22;2509;49.902;8.600;2023-08-01T12:21:25;24.30;99.90
4985;DHT22;2509;49.902;8.600;2023-08-01T12:24:27;24.90;99.90
4985;DHT22;2509;49.902;8.600;2023-08-01T12:27:28;25.30;99.90
4985;DHT22;2509;49.902;8.600;2023-08-01T12:30:30;25.20;99.90
4985;DHT22;2509;49.902;8.600;2023-08-01T12:33:33;25.70;99.90
4985;DHT22;2509;49.902;8.600;2023-08-01T12:36:35;26.70;99.90
4985;DHT22;2509;49.902;8.600;2023-08-01T12:39:37;27.20;99.40
4985;DHT22;2509;49.902;8.600;2023-08-01T12:42:38;27.90;99.90
4985;DHT22;2509;49.902;8.600;2023-08-01T12:45:40;28.50;96.30
4985;DHT22;2509;49.902;8.600;2023-08-01T12:48:43;28.60;94.10
4985;DHT22;2509;49.902;8.600;2023-08-01T12:51:45;28.50;93.40
4985;DHT22;2509;49.902;8.600;2023-08-01T12:54:47;28.80;92.20
4985;DHT22;2509;49.902;8.600;2023-08-01T12:57:50;28.90;90.40
4985;DHT22;2509;49.902;8.600;2023-08-01T13:00:52;28.60;91.30
4985;DHT22;2509;49.902;8.600;2023-08-01T13:03:55;28.20;92.00
4985;DHT22;2509;49.902;8.600;2023-08-01T13:06:56;28.30;91.20
4985;DHT22;2509;49.902;8.600;2023-08-01T13:09:58;28.90;89.80
4985;DHT22;2509;49.902;8.600;2023-08-01T13:13:00;29.50;88.90
4985;DHT22;2509;49.902;8.600;2023-08-01T13:16:02;30.10;88.70
4985;DHT22;2509;49.902;8.600;2023-08-01T13:19:05;29.90;88.70
4985;DHT22;2509;49.902;8.600;2023-08-01T13:22:07;29.00;89.50
4985;DHT22;2509;49.902;8.600;2023-08-01T13:25:09;28.10;92.50
4985;DHT22;2509;49.902;8.600;2023-08-01T13:28:11;29.00;90.90
4985;DHT22;2509;49.902;8.600;2023-08-01T13:31:13;28.90;91.90
4985;DHT22;2509;49.902;8.600;2023-08-01T13:34:16;28.40;92.70
4985;DHT22;2509;49.902;8.600;2023-08-01T13:37:18;27.90;90.80
4985;DHT22;2509;49.902;8.600;2023-08-01T13:40:20;26.90;92.50
4985;DHT22;2509;49.902;8.600;2023-08-01T13:43:21;26.50;95.40
4985;DHT22;2509;49.902;8.600;2023-08-01T13:46:23;26.70;97.10
4985;DHT22;2509;49.902;8.600;2023-08-01T13:49:26;27.20;95.50
4985;DHT22;2509;49.902;8.600;2023-08-01T13:52:28;27.70;94.20
4985;DHT22;2509;49.902;8.600;2023-08-01T13:55:32;27.80;94.90
4985;DHT22;2509;49.902;8.600;2023-08-01T13:58:33;27.40;95.70
4985;DHT22;2509;49.902;8.600;2023-08-01T14:01:35;27.70;94.30
4985;DHT22;2509;49.902;8.600;2023-08-01T14:04:39;27.80;93.50
4985;DHT22;2509;49.902;8.600;2023-08-01T14:07:41;26.90;95.70
4985;DHT22;2509;49.902;8.600;2023-08-01T14:10:43;25.80;99.30
4985;DHT22;2509;49.902;8.600;2023-08-01T14:13:44;25.20;99.90
4985;DHT22;2509;49.902;8.600;2023-08-01T14:16:46;24.60;99.90
4985;DHT22;2509;49.902;8.600;2023-08-01T14:19:49;23.50;99.90
4985;DHT22;2509;49.902;8.600;2023-08-01T14:22:51;21.50;99.90
4985;DHT22;2509;49.902;8.600;2023-08-01T14:25:53;20.50;99.90
4985;DHT22;2509;49.902;8.600;2023-08-01T14:28:55;20.00;99.90
4985;DHT22;2509;49.902;8.600;2023-08-01T14:31:56;20.10;99.90
4985;DHT22;2509;49.902;8.600;2023-08-01T14:34:59;20.10;99.90
4985;DHT22;2509;49.902;8.600;2023-08-01T14:38:01;19.90;99.90
4985;DHT22;2509;49.902;8.600;2023-08-01T14:41:04;19.60;99.90
4985;DHT22;2509;49.902;8.600;2023-08-01T14:44:06;19.20;99.90
4985;DHT22;2509;49.902;8.600;2023-08-01T14:47:07;19.00;99.90
4985;DHT22;2509;49.902;8.600;2023-08-01T14:50:11;18.80;99.90
4985;DHT22;2509;49.902;8.600;2023-08-01T14:53:14;18.60;99.90
4985;DHT22;2509;49.902;8.600;2023-08-01T14:56:15;18.60;99.90
4985;DHT22;2509;49.902;8.600;2023-08-01T14:59:17;18.60;99.90
4985;DHT22;2509;49.902;8.600;2023-08-01T15:02:19;18.60;99.90
4985;DHT22;2509;49.902;8.600;2023-08-01T15:05:24;18.80;99.90
4985;DHT22;2509;49.902;8.600;2023-08-01T15:08:26;19.40;99.90
4985;DHT22;2509;49.902;8.600;2023-08-01T15:11:28;19.70;99.90
4985;DHT22;2509;49.902;8.600;2023-08-01T15:14:29;19.70;99.90
4985;DHT22;2509;49.902;8.600;2023-08-01T15:17:31;19.70;99.90
4985;DHT22;2509;49.902;8.600;2023-08-01T15:20:34;20.40;99.90
4985;DHT22;2509;49.902;8.600;2023-08-01T15:23:40;21.60;99.90
4985;DHT22;2509;49.902;8.600;2023-08-01T15:26:42;22.30;99.90
4985;DHT22;2509;49.902;8.600;2023-08-01T15:29:45;22.30;99.90
4985;DHT22;2509;49.902;8.600;2023-08-01T15:32:47;21.80;99.90
4985;DHT22;2509;49.902;8.600;2023-08-01T15:35:50;21.30;99.90
4985;DHT22;2509;49.902;8.600;2023-08-01T15:38:52;21.10;99.90
4985;DHT22;2509;49.902;8.600;2023-08-01T15:41:54;20.60;99.90
4985;DHT22;2509;49.902;8.600;2023-08-01T15:44:55;19.80;99.90
4985;DHT22;2509;49.902;8.600;2023-08-01T15:47:57;18.40;99.90
4985;DHT22;2509;49.902;8.600;2023-08-01T15:51:02;17.80;99.90
4985;DHT22;2509;49.902;8.600;2023-08-01T15:54:06;17.60;99.90
4985;DHT22;2509;49.902;8.600;2023-08-01T15:57:08;17.50;99.90
4985;DHT22;2509;49.902;8.600;2023-08-01T16:00:10;17.40;99.90
4985;DHT22;2509;49.902;8.600;2023-08-01T16:03:12;17.50;99.90
4985;DHT22;2509;49.902;8.600;2023-08-01T16:06:15;17.50;99.90
4985;DHT22;2509;49.902;8.600;2023-08-01T16:09:17;17.50;99.90
4985;DHT22;2509;49.902;8.600;2023-08-01T16:12:19;17.70;99.90
4985;DHT22;2509;49.902;8.600;2023-08-01T16:15:20;17.70;99.90
4985;DHT22;2509;49.902;8.600;2023-08-01T16:18:22;18.40;99.90
4985;DHT22;2509;49.902;8.600;2023-08-01T16:21:25;18.70;99.90
4985;DHT22;2509;49.902;8.600;2023-08-01T16:24:27;18.80;99.90
4985;DHT22;2509;49.902;8.600;2023-08-01T16:27:29;18.80;99.90
4985;DHT22;2509;49.902;8.600;2023-08-01T16:30:30;18.80;99.90
4985;DHT22;2509;49.902;8.600;2023-08-01T16:33:32;18.80;99.90
4985;DHT22;2509;49.902;8.600;2023-08-01T16:36:35;19.00;99.90
4985;DHT22;2509;49.902;8.600;2023-08-01T16:39:37;19.00;99.90
4985;DHT22;2509;49.902;8.600;2023-08-01T16:42:40;18.60;99.90
4985;DHT22;2509;49.902;8.600;2023-08-01T16:45:42;18.60;99.90
4985;DHT22;2509;49.902;8.600;2023-08-01T16:48:44;18.50;99.90
4985;DHT22;2509;49.902;8.600;2023-08-01T16:51:47;18.30;99.90
4985;DHT22;2509;49.902;8.600;2023-08-01T16:54:49;18.20;99.90
4985;DHT22;2509;49.902;8.600;2023-08-01T16:57:51;18.20;99.90
4985;DHT22;2509;49.902;8.600;2023-08-01T17:00:52;18.10;99.90
4985;DHT22;2509;49.902;8.600;2023-08-01T17:03:54;18.10;99.90
4985;DHT22;2509;49.902;8.600;2023-08-01T17:06:57;18.00;99.90
4985;DHT22;2509;49.902;8.600;2023-08-01T17:10:03;17.90;99.90
4985;DHT22;2509;49.902;8.600;2023-08-01T17:13:05;18.00;99.90
4985;DHT22;2509;49.902;8.600;2023-08-01T17:16:06;17.90;99.90
4985;DHT22;2509;49.902;8.600;2023-08-01T17:19:08;17.90;99.90
4985;DHT22;2509;49.902;8.600;2023-08-01T17:22:11;17.80;99.90
4985;DHT22;2509;49.902;8.600;2023-08-01T17:25:13;17.80;99.90
4985;DHT22;2509;49.902;8.600;2023-08-01T17:28:15;17.80;99.90
4985;DHT22;2509;49.902;8.600;2023-08-01T17:31:16;17.80;99.90
4985;DHT22;2509;49.902;8.600;2023-08-01T17:34:18;17.80;99.90
4985;DHT22;2509;49.902;8.600;2023-08-01T17:37:21;17.70;99.90
4985;DHT22;2509;49.902;8.600;2023-08-01T17:40:23;17.70;99.90
4985;DHT22;2509;49.902;8.600;2023-08-01T17:43:25;17.70;99.90
4985;DHT22;2509;49.902;8.600;2023-08-01T17:46:27;17.60;99.90
4985;DHT22;2509;49.902;8.600;2023-08-01T17:49:28;17.50;99.90
4985;DHT22;2509;49.902;8.600;2023-08-01T17:52:32;17.40;99.90
4985;DHT22;2509;49.902;8.600;2023-08-01T17:55:34;17.40;99.90
4985;DHT22;2509;49.902;8.600;2023-08-01T17:58:35;17.30;99.90
4985;DHT22;2509;49.902;8.600;2023-08-01T18:01:37;17.30;99.90
4985;DHT22;2509;49.902;8.600;2023-08-01T18:04:41;17.30;99.90
4985;DHT22;2509;49.902;8.600;2023-08-01T18:07:45;17.30;99.90
4985;DHT22;2509;49.902;8.600;2023-08-01T18:10:47;17.40;99.90
4985;DHT22;2509;49.902;8.600;2023-08-01T18:13:49;17.40;99.90
4985;DHT22;2509;49.902;8.600;2023-08-01T18:16:50;17.40;99.90
4985;DHT22;2509;49.902;8.600;2023-08-01T18:19:52;17.40;99.90
4985;DHT22;2509;49.902;8.600;2023-08-01T18:22:55;17.40;99.90
4985;DHT22;2509;49.902;8.600;2023-08-01T18:25:57;17.40;99.90
4985;DHT22;2509;49.902;8.600;2023-08-01T18:28:59;17.40;99.90
4985;DHT22;2509;49.902;8.600;2023-08-01T18:32:00;17.40;99.90
4985;DHT22;2509;49.902;8.600;2023-08-01T18:35:02;17.40;99.90
4985;DHT22;2509;49.902;8.600;2023-08-01T18:38:07;17.40;99.90
4985;DHT22;2509;49.902;8.600;2023-08-01T18:41:08;17.40;99.90
4985;DHT22;2509;49.902;8.600;2023-08-01T18:44:10;17.30;99.90
4985;DHT22;2509;49.902;8.600;2023-08-01T18:47:12;17.30;99.90
4985;DHT22;2509;49.902;8.600;2023-08-01T18:50:14;17.20;99.90
4985;DHT22;2509;49.902;8.600;2023-08-01T18:53:17;17.30;99.90
4985;DHT22;2509;49.902;8.600;2023-08-01T18:56:19;17.20;99.90
4985;DHT22;2509;49.902;8.600;2023-08-01T18:59:21;17.10;99.90
4985;DHT22;2509;49.902;8.600;2023-08-01T19:02:23;17.10;99.90
4985;DHT22;2509;49.902;8.600;2023-08-01T19:05:26;17.10;99.90
4985;DHT22;2509;49.902;8.600;2023-08-01T19:08:29;17.00;99.90
4985;DHT22;2509;49.902;8.600;2023-08-01T19:11:31;17.00;99.90
4985;DHT22;2509;49.902;8.600;2023-08-01T19:14:33;17.00;99.90
4985;DHT22;2509;49.902;8.600;2023-08-01T19:17:34;17.10;99.90
4985;DHT22;2509;49.902;8.600;2023-08-01T19:20:36;17.00;99.90
4985;DHT22;2509;49.902;8.600;2023-08-01T19:23:40;17.00;99.90
4985;DHT22;2509;49.902;8.600;2023-08-01T19:26:41;17.00;99.90
4985;DHT22;2509;49.902;8.600;2023-08-01T19:29:43;17.00;99.90
4985;DHT22;2509;49.902;8.600;2023-08-01T19:32:48;17.00;99.90
4985;DHT22;2509;49.902;8.600;2023-08-01T19:35:50;17.10;99.90
4985;DHT22;2509;49.902;8.600;2023-08-01T19:38:53;17.10;99.90
4985;DHT22;2509;49.902;8.600;2023-08-01T19:41:55;17.20;99.90
4985;DHT22;2509;49.902;8.600;2023-08-01T19:44:56;17.30;99.90
4985;DHT22;2509;49.902;8.600;2023-08-01T19:47:58;17.30;99.90
4985;DHT22;2509;49.902;8.600;2023-08-01T19:51:00;17.30;99.90
4985;DHT22;2509;49.902;8.600;2023-08-01T19:54:04;17.40;99.90
4985;DHT22;2509;49.902;8.600;2023-08-01T19:57:06;17.40;99.90